sensor_id;sensor_type;location;lat;lon;timestamp;P1;durP1;ratioP1;P2;durP2;ratioP2
69369;SDS011;56530;42.640;23.372;2023-03-21T00:01:56;9.15;;;4.40;;
69369;SDS011;56530;42.640;23.372;2023-03-21T00:04:22;9.43;;;5.28;;
69369;SDS011;56530;42.640;23.372;2023-03-21T00:06:48;6.05;;;4.63;;
69369;SDS011;56530;42.640;23.372;2023-03-21T00:09:14;11.88;;;5.25;;
69369;SDS011;56530;42.640;23.372;2023-03-21T00:11:40;6.63;;;5.25;;
69369;SDS011;56530;42.640;23.372;2023-03-21T00:14:05;9.20;;;4.60;;
69369;SDS011;56530;42.640;23.372;2023-03-21T00:16:33;11.40;;;4.75;;
69369;SDS011;56530;42.640;23.372;2023-03-21T00:19:00;8.00;;;5.22;;
69369;SDS011;56530;42.640;23.372;2023-03-21T00:21:27;9.93;;;5.05;;
69369;SDS011;56530;42.640;23.372;2023-03-21T00:23:56;8.38;;;5.53;;
69369;SDS011;56530;42.640;23.372;2023-03-21T00:26:22;11.57;;;6.80;;
69369;SDS011;56530;42.640;23.372;2023-03-21T00:28:48;14.52;;;8.43;;
69369;SDS011;56530;42.640;23.372;2023-03-21T00:31:13;14.65;;;8.60;;
69369;SDS011;56530;42.640;23.372;2023-03-21T00:33:39;18.73;;;10.75;;
69369;SDS011;56530;42.640;23.372;2023-03-21T00:36:05;21.95;;;10.10;;
69369;SDS011;56530;42.640;23.372;2023-03-21T00:38:32;18.88;;;9.80;;
69369;SDS011;56530;42.640;23.372;2023-03-21T00:40:58;20.73;;;11.73;;
69369;SDS011;56530;42.640;23.372;2023-03-21T00:43:23;16.88;;;11.38;;
69369;SDS011;56530;42.640;23.372;2023-03-21T00:45:54;22.58;;;11.40;;
69369;SDS011;56530;42.640;23.372;2023-03-21T00:48:21;21.17;;;11.93;;
69369;SDS011;56530;42.640;23.372;2023-03-21T00:50:46;22.13;;;12.30;;
69369;SDS011;56530;42.640;23.372;2023-03-21T00:53:13;15.52;;;11.68;;
69369;SDS011;56530;42.640;23.372;2023-03-21T00:55:39;21.17;;;11.73;;
69369;SDS011;56530;42.640;23.372;2023-03-21T00:58:05;22.15;;;12.65;;
69369;SDS011;56530;42.640;23.372;2023-03-21T01:00:31;16.67;;;11.02;;
69369;SDS011;56530;42.640;23.372;2023-03-21T01:02:58;18.52;;;11.50;;
69369;SDS011;56530;42.640;23.372;2023-03-21T01:05:30;22.45;;;12.55;;
69369;SDS011;56530;42.640;23.372;2023-03-21T01:08:36;18.05;;;11.27;;
69369;SDS011;56530;42.640;23.372;2023-03-21T01:11:05;21.40;;;11.40;;
69369;SDS011;56530;42.640;23.372;2023-03-21T01:13:32;19.23;;;11.38;;
69369;SDS011;56530;42.640;23.372;2023-03-21T01:15:58;20.20;;;11.70;;
69369;SDS011;56530;42.640;23.372;2023-03-21T01:18:25;17.42;;;11.57;;
69369;SDS011;56530;42.640;23.372;2023-03-21T01:20:54;18.90;;;11.30;;
69369;SDS011;56530;42.640;23.372;2023-03-21T01:23:20;21.08;;;13.30;;
69369;SDS011;56530;42.640;23.372;2023-03-21T01:25:46;23.00;;;12.65;;
69369;SDS011;56530;42.640;23.372;2023-03-21T01:28:12;19.48;;;12.85;;
69369;SDS011;56530;42.640;23.372;2023-03-21T01:30:38;21.50;;;11.35;;
69369;SDS011;56530;42.640;23.372;2023-03-21T01:33:03;17.70;;;10.93;;
69369;SDS011;56530;42.640;23.372;2023-03-21T01:35:29;19.42;;;12.82;;
69369;SDS011;56530;42.640;23.372;2023-03-21T01:37:54;20.77;;;11.70;;
69369;SDS011;56530;42.640;23.372;2023-03-21T01:40:22;23.63;;;12.50;;
69369;SDS011;56530;42.640;23.372;2023-03-21T01:42:49;18.13;;;11.95;;
69369;SDS011;56530;42.640;23.372;2023-03-21T01:48:18;16.08;;;11.73;;
69369;SDS011;56530;42.640;23.372;2023-03-21T01:50:45;23.10;;;11.77;;
69369;SDS011;56530;42.640;23.372;2023-03-21T01:53:11;17.77;;;11.35;;
69369;SDS011;56530;42.640;23.372;2023-03-21T01:55:36;16.80;;;10.57;;
69369;SDS011;56530;42.640;23.372;2023-03-21T01:58:03;18.30;;;11.07;;
69369;SDS011;56530;42.640;23.372;2023-03-21T02:00:29;17.20;;;11.43;;
69369;SDS011;56530;42.640;23.372;2023-03-21T02:02:56;19.02;;;10.52;;
69369;SDS011;56530;42.640;23.372;2023-03-21T02:05:32;20.52;;;10.73;;
69369;SDS011;56530;42.640;23.372;2023-03-21T02:08:13;17.23;;;10.50;;
69369;SDS011;56530;42.640;23.372;2023-03-21T02:10:39;24.63;;;10.10;;
69369;SDS011;56530;42.640;23.372;2023-03-21T02:13:06;13.43;;;10.10;;
69369;SDS011;56530;42.640;23.372;2023-03-21T02:15:39;16.20;;;9.68;;
69369;SDS011;56530;42.640;23.372;2023-03-21T02:26:33;14.25;;;10.00;;
69369;SDS011;56530;42.640;23.372;2023-03-21T02:45:15;10.27;;;8.77;;
69369;SDS011;56530;42.640;23.372;2023-03-21T02:47:45;13.80;;;8.45;;
69369;SDS011;56530;42.640;23.372;2023-03-21T02:52:54;18.67;;;8.95;;
69369;SDS011;56530;42.640;23.372;2023-03-21T02:55:23;12.65;;;7.57;;
69369;SDS011;56530;42.640;23.372;2023-03-21T02:57:50;14.82;;;9.13;;
69369;SDS011;56530;42.640;23.372;2023-03-21T03:00:17;13.98;;;8.98;;
69369;SDS011;56530;42.640;23.372;2023-03-21T03:02:45;14.82;;;8.23;;
69369;SDS011;56530;42.640;23.372;2023-03-21T03:05:15;16.23;;;9.88;;
69369;SDS011;56530;42.640;23.372;2023-03-21T03:08:06;20.65;;;10.15;;
69369;SDS011;56530;42.640;23.372;2023-03-21T03:10:41;14.98;;;10.02;;
69369;SDS011;56530;42.640;23.372;2023-03-21T03:24:09;14.85;;;10.77;;
69369;SDS011;56530;42.640;23.372;2023-03-21T03:26:38;19.63;;;11.23;;
69369;SDS011;56530;42.640;23.372;2023-03-21T03:29:08;17.02;;;11.85;;
69369;SDS011;56530;42.640;23.372;2023-03-21T03:31:45;13.77;;;10.02;;
69369;SDS011;56530;42.640;23.372;2023-03-21T03:34:15;18.85;;;10.75;;
69369;SDS011;56530;42.640;23.372;2023-03-21T03:36:45;16.20;;;10.35;;
69369;SDS011;56530;42.640;23.372;2023-03-21T03:39:15;18.63;;;10.32;;
69369;SDS011;56530;42.640;23.372;2023-03-21T03:41:57;17.70;;;9.88;;
69369;SDS011;56530;42.640;23.372;2023-03-21T03:44:24;19.17;;;9.20;;
69369;SDS011;56530;42.640;23.372;2023-03-21T03:49:45;14.70;;;9.07;;
69369;SDS011;56530;42.640;23.372;2023-03-21T03:52:17;17.17;;;9.38;;
69369;SDS011;56530;42.640;23.372;2023-03-21T03:54:45;17.25;;;9.80;;
69369;SDS011;56530;42.640;23.372;2023-03-21T03:57:12;17.88;;;10.10;;
69369;SDS011;56530;42.640;23.372;2023-03-21T03:59:38;16.88;;;9.73;;
69369;SDS011;56530;42.640;23.372;2023-03-21T04:02:05;16.75;;;8.40;;
69369;SDS011;56530;42.640;23.372;2023-03-21T04:04:31;14.90;;;9.90;;
69369;SDS011;56530;42.640;23.372;2023-03-21T04:06:56;11.55;;;7.97;;
69369;SDS011;56530;42.640;23.372;2023-03-21T04:09:27;15.57;;;8.50;;
69369;SDS011;56530;42.640;23.372;2023-03-21T04:11:53;20.33;;;9.38;;
69369;SDS011;56530;42.640;23.372;2023-03-21T04:14:18;14.20;;;8.52;;
69369;SDS011;56530;42.640;23.372;2023-03-21T04:16:44;15.10;;;8.65;;
69369;SDS011;56530;42.640;23.372;2023-03-21T04:19:10;16.92;;;8.45;;
69369;SDS011;56530;42.640;23.372;2023-03-21T04:21:36;11.18;;;7.70;;
69369;SDS011;56530;42.640;23.372;2023-03-21T04:24:01;15.88;;;8.65;;
69369;SDS011;56530;42.640;23.372;2023-03-21T04:26:27;14.63;;;8.07;;
69369;SDS011;56530;42.640;23.372;2023-03-21T04:28:57;13.82;;;9.07;;
69369;SDS011;56530;42.640;23.372;2023-03-21T04:31:25;10.35;;;8.15;;
69369;SDS011;56530;42.640;23.372;2023-03-21T04:33:52;14.43;;;7.95;;
69369;SDS011;56530;42.640;23.372;2023-03-21T04:36:19;13.95;;;7.72;;
69369;SDS011;56530;42.640;23.372;2023-03-21T04:39:03;17.02;;;9.07;;
69369;SDS011;56530;42.640;23.372;2023-03-21T04:41:36;16.55;;;8.13;;
69369;SDS011;56530;42.640;23.372;2023-03-21T04:44:05;18.48;;;8.95;;
69369;SDS011;56530;42.640;23.372;2023-03-21T04:46:31;11.27;;;8.15;;
69369;SDS011;56530;42.640;23.372;2023-03-21T04:48:57;13.05;;;8.57;;
69369;SDS011;56530;42.640;23.372;2023-03-21T04:51:23;15.70;;;7.40;;
69369;SDS011;56530;42.640;23.372;2023-03-21T04:53:48;10.07;;;7.03;;
69369;SDS011;56530;42.640;23.372;2023-03-21T04:56:16;14.90;;;7.95;;
69369;SDS011;56530;42.640;23.372;2023-03-21T04:58:42;10.43;;;6.80;;
69369;SDS011;56530;42.640;23.372;2023-03-21T05:01:07;13.23;;;7.82;;
69369;SDS011;56530;42.640;23.372;2023-03-21T05:03:33;10.55;;;7.10;;
69369;SDS011;56530;42.640;23.372;2023-03-21T05:06:04;13.95;;;8.27;;
69369;SDS011;56530;42.640;23.372;2023-03-21T05:08:33;8.65;;;7.30;;
69369;SDS011;56530;42.640;23.372;2023-03-21T05:10:59;13.63;;;8.38;;
69369;SDS011;56530;42.640;23.372;2023-03-21T05:13:25;10.10;;;7.15;;
69369;SDS011;56530;42.640;23.372;2023-03-21T05:15:51;16.27;;;7.78;;
69369;SDS011;56530;42.640;23.372;2023-03-21T05:18:16;12.88;;;7.63;;
69369;SDS011;56530;42.640;23.372;2023-03-21T05:20:49;19.02;;;8.48;;
69369;SDS011;56530;42.640;23.372;2023-03-21T05:23:22;12.68;;;7.40;;
69369;SDS011;56530;42.640;23.372;2023-03-21T05:25:48;15.80;;;7.70;;
69369;SDS011;56530;42.640;23.372;2023-03-21T05:28:14;14.77;;;7.65;;
69369;SDS011;56530;42.640;23.372;2023-03-21T05:30:43;16.45;;;8.82;;
69369;SDS011;56530;42.640;23.372;2023-03-21T05:33:10;25.98;;;8.90;;
69369;SDS011;56530;42.640;23.372;2023-03-21T05:35:35;32.72;;;9.27;;
69369;SDS011;56530;42.640;23.372;2023-03-21T05:38:01;25.05;;;9.77;;
69369;SDS011;56530;42.640;23.372;2023-03-21T05:40:26;13.60;;;8.02;;
69369;SDS011;56530;42.640;23.372;2023-03-21T05:42:52;18.65;;;8.63;;
69369;SDS011;56530;42.640;23.372;2023-03-21T05:45:17;16.90;;;9.18;;
69369;SDS011;56530;42.640;23.372;2023-03-21T05:47:42;27.05;;;7.78;;
69369;SDS011;56530;42.640;23.372;2023-03-21T05:50:08;20.85;;;8.55;;
69369;SDS011;56530;42.640;23.372;2023-03-21T05:52:35;22.63;;;7.65;;
69369;SDS011;56530;42.640;23.372;2023-03-21T05:55:00;28.02;;;9.35;;
69369;SDS011;56530;42.640;23.372;2023-03-21T05:57:26;26.17;;;9.23;;
69369;SDS011;56530;42.640;23.372;2023-03-21T05:59:52;23.73;;;8.82;;
69369;SDS011;56530;42.640;23.372;2023-03-21T06:02:18;23.73;;;8.05;;
69369;SDS011;56530;42.640;23.372;2023-03-21T06:04:44;22.33;;;8.82;;
69369;SDS011;56530;42.640;23.372;2023-03-21T06:07:09;13.93;;;8.65;;
69369;SDS011;56530;42.640;23.372;2023-03-21T06:09:35;13.25;;;8.65;;
69369;SDS011;56530;42.640;23.372;2023-03-21T06:12:00;14.23;;;8.70;;
69369;SDS011;56530;42.640;23.372;2023-03-21T06:14:26;12.73;;;8.98;;
69369;SDS011;56530;42.640;23.372;2023-03-21T06:16:51;29.13;;;12.05;;
69369;SDS011;56530;42.640;23.372;2023-03-21T06:19:18;21.17;;;9.48;;
69369;SDS011;56530;42.640;23.372;2023-03-21T06:21:44;15.40;;;8.00;;
69369;SDS011;56530;42.640;23.372;2023-03-21T06:24:09;12.00;;;8.23;;
69369;SDS011;56530;42.640;23.372;2023-03-21T06:26:35;14.80;;;7.72;;
69369;SDS011;56530;42.640;23.372;2023-03-21T06:29:00;15.48;;;8.10;;
69369;SDS011;56530;42.640;23.372;2023-03-21T06:31:26;14.05;;;8.93;;
69369;SDS011;56530;42.640;23.372;2023-03-21T06:33:51;16.50;;;7.30;;
69369;SDS011;56530;42.640;23.372;2023-03-21T06:36:17;17.40;;;9.32;;
69369;SDS011;56530;42.640;23.372;2023-03-21T06:38:43;26.48;;;10.63;;
69369;SDS011;56530;42.640;23.372;2023-03-21T06:41:12;31.42;;;10.02;;
69369;SDS011;56530;42.640;23.372;2023-03-21T06:43:37;28.48;;;10.10;;
69369;SDS011;56530;42.640;23.372;2023-03-21T06:46:03;19.33;;;9.35;;
69369;SDS011;56530;42.640;23.372;2023-03-21T06:48:29;17.20;;;8.73;;
69369;SDS011;56530;42.640;23.372;2023-03-21T06:50:55;22.65;;;10.07;;
69369;SDS011;56530;42.640;23.372;2023-03-21T06:53:21;23.77;;;10.20;;
69369;SDS011;56530;42.640;23.372;2023-03-21T06:55:51;24.55;;;10.55;;
69369;SDS011;56530;42.640;23.372;2023-03-21T06:58:17;18.27;;;9.63;;
69369;SDS011;56530;42.640;23.372;2023-03-21T07:00:43;25.80;;;10.90;;
69369;SDS011;56530;42.640;23.372;2023-03-21T07:03:09;18.50;;;9.73;;
69369;SDS011;56530;42.640;23.372;2023-03-21T07:05:36;16.13;;;8.40;;
69369;SDS011;56530;42.640;23.372;2023-03-21T07:08:02;16.05;;;8.80;;
69369;SDS011;56530;42.640;23.372;2023-03-21T07:10:27;22.95;;;9.20;;
69369;SDS011;56530;42.640;23.372;2023-03-21T07:12:53;19.50;;;9.75;;
69369;SDS011;56530;42.640;23.372;2023-03-21T07:15:18;14.15;;;8.43;;
69369;SDS011;56530;42.640;23.372;2023-03-21T07:17:44;25.13;;;9.48;;
69369;SDS011;56530;42.640;23.372;2023-03-21T07:20:09;12.65;;;7.93;;
69369;SDS011;56530;42.640;23.372;2023-03-21T07:22:36;8.82;;;7.93;;
69369;SDS011;56530;42.640;23.372;2023-03-21T07:25:02;17.30;;;8.70;;
69369;SDS011;56530;42.640;23.372;2023-03-21T07:27:28;16.30;;;9.15;;
69369;SDS011;56530;42.640;23.372;2023-03-21T07:29:53;21.85;;;9.80;;
69369;SDS011;56530;42.640;23.372;2023-03-21T07:32:18;28.08;;;9.38;;
69369;SDS011;56530;42.640;23.372;2023-03-21T07:34:44;19.92;;;9.38;;
69369;SDS011;56530;42.640;23.372;2023-03-21T07:37:09;20.38;;;10.68;;
69369;SDS011;56530;42.640;23.372;2023-03-21T07:39:35;16.80;;;8.60;;
69369;SDS011;56530;42.640;23.372;2023-03-21T07:42:00;21.85;;;10.00;;
69369;SDS011;56530;42.640;23.372;2023-03-21T07:44:26;24.10;;;10.07;;
69369;SDS011;56530;42.640;23.372;2023-03-21T07:46:53;25.25;;;9.02;;
69369;SDS011;56530;42.640;23.372;2023-03-21T07:49:18;17.10;;;9.45;;
69369;SDS011;56530;42.640;23.372;2023-03-21T07:51:44;17.48;;;10.70;;
69369;SDS011;56530;42.640;23.372;2023-03-21T07:54:09;14.48;;;10.07;;
69369;SDS011;56530;42.640;23.372;2023-03-21T07:56:34;20.55;;;10.27;;
69369;SDS011;56530;42.640;23.372;2023-03-21T07:59:00;38.50;;;11.07;;
69369;SDS011;56530;42.640;23.372;2023-03-21T08:01:25;15.05;;;9.15;;
69369;SDS011;56530;42.640;23.372;2023-03-21T08:03:51;24.40;;;10.75;;
69369;SDS011;56530;42.640;23.372;2023-03-21T08:06:20;31.30;;;11.38;;
69369;SDS011;56530;42.640;23.372;2023-03-21T08:08:46;26.27;;;11.88;;
69369;SDS011;56530;42.640;23.372;2023-03-21T08:11:12;19.10;;;9.90;;
69369;SDS011;56530;42.640;23.372;2023-03-21T08:13:37;25.88;;;12.38;;
69369;SDS011;56530;42.640;23.372;2023-03-21T08:16:03;23.00;;;10.68;;
69369;SDS011;56530;42.640;23.372;2023-03-21T08:18:29;26.58;;;13.93;;
69369;SDS011;56530;42.640;23.372;2023-03-21T08:20:54;33.60;;;12.27;;
69369;SDS011;56530;42.640;23.372;2023-03-21T08:23:21;25.73;;;12.82;;
69369;SDS011;56530;42.640;23.372;2023-03-21T08:25:51;23.92;;;12.25;;
69369;SDS011;56530;42.640;23.372;2023-03-21T08:28:20;20.02;;;9.85;;
69369;SDS011;56530;42.640;23.372;2023-03-21T08:30:46;32.88;;;13.15;;
69369;SDS011;56530;42.640;23.372;2023-03-21T08:33:12;20.17;;;12.25;;
69369;SDS011;56530;42.640;23.372;2023-03-21T08:35:38;22.20;;;10.95;;
69369;SDS011;56530;42.640;23.372;2023-03-21T08:38:04;24.38;;;14.02;;
69369;SDS011;56530;42.640;23.372;2023-03-21T08:40:30;28.08;;;13.55;;
69369;SDS011;56530;42.640;23.372;2023-03-21T08:42:55;466.15;;;49.30;;
69369;SDS011;56530;42.640;23.372;2023-03-21T08:45:21;472.65;;;53.53;;
69369;SDS011;56530;42.640;23.372;2023-03-21T08:47:47;43.88;;;14.88;;
69369;SDS011;56530;42.640;23.372;2023-03-21T08:50:15;87.80;;;17.38;;
69369;SDS011;56530;42.640;23.372;2023-03-21T08:52:41;39.78;;;15.75;;
69369;SDS011;56530;42.640;23.372;2023-03-21T08:55:07;32.50;;;13.10;;
69369;SDS011;56530;42.640;23.372;2023-03-21T08:57:33;30.33;;;12.18;;
69369;SDS011;56530;42.640;23.372;2023-03-21T08:59:59;21.58;;;13.52;;
69369;SDS011;56530;42.640;23.372;2023-03-21T09:02:24;26.15;;;14.10;;
69369;SDS011;56530;42.640;23.372;2023-03-21T09:04:50;17.90;;;12.95;;
69369;SDS011;56530;42.640;23.372;2023-03-21T09:07:18;26.35;;;13.85;;
69369;SDS011;56530;42.640;23.372;2023-03-21T09:09:44;25.90;;;13.55;;
69369;SDS011;56530;42.640;23.372;2023-03-21T09:12:11;31.58;;;14.63;;
69369;SDS011;56530;42.640;23.372;2023-03-21T09:14:36;31.92;;;15.77;;
69369;SDS011;56530;42.640;23.372;2023-03-21T09:17:01;39.55;;;17.10;;
69369;SDS011;56530;42.640;23.372;2023-03-21T09:19:27;34.08;;;16.13;;
69369;SDS011;56530;42.640;23.372;2023-03-21T09:21:54;24.27;;;15.20;;
69369;SDS011;56530;42.640;23.372;2023-03-21T09:24:19;31.73;;;13.95;;
69369;SDS011;56530;42.640;23.372;2023-03-21T09:26:45;50.97;;;16.27;;
69369;SDS011;56530;42.640;23.372;2023-03-21T09:29:15;21.85;;;14.77;;
69369;SDS011;56530;42.640;23.372;2023-03-21T09:31:40;24.30;;;14.30;;
69369;SDS011;56530;42.640;23.372;2023-03-21T09:34:07;21.65;;;13.45;;
69369;SDS011;56530;42.640;23.372;2023-03-21T09:36:33;33.55;;;15.48;;
69369;SDS011;56530;42.640;23.372;2023-03-21T09:39:00;30.77;;;16.42;;
69369;SDS011;56530;42.640;23.372;2023-03-21T09:44:21;33.33;;;16.10;;
69369;SDS011;56530;42.640;23.372;2023-03-21T09:49:45;35.25;;;17.02;;
69369;SDS011;56530;42.640;23.372;2023-03-21T09:52:21;35.83;;;16.10;;
69369;SDS011;56530;42.640;23.372;2023-03-21T09:54:50;26.58;;;17.00;;
69369;SDS011;56530;42.640;23.372;2023-03-21T10:00:00;26.77;;;14.90;;
69369;SDS011;56530;42.640;23.372;2023-03-21T10:02:37;30.02;;;14.73;;
69369;SDS011;56530;42.640;23.372;2023-03-21T10:05:37;21.58;;;14.30;;
69369;SDS011;56530;42.640;23.372;2023-03-21T10:10:28;26.38;;;13.25;;
69369;SDS011;56530;42.640;23.372;2023-03-21T10:12:56;38.05;;;15.60;;
69369;SDS011;56530;42.640;23.372;2023-03-21T10:15:23;22.20;;;15.85;;
69369;SDS011;56530;42.640;23.372;2023-03-21T10:17:58;35.63;;;17.65;;
69369;SDS011;56530;42.640;23.372;2023-03-21T10:20:35;28.05;;;16.15;;
69369;SDS011;56530;42.640;23.372;2023-03-21T10:23:06;26.27;;;16.67;;
69369;SDS011;56530;42.640;23.372;2023-03-21T10:25:36;26.63;;;17.73;;
69369;SDS011;56530;42.640;23.372;2023-03-21T10:28:05;31.55;;;17.95;;
69369;SDS011;56530;42.640;23.372;2023-03-21T10:30:45;26.67;;;16.75;;
69369;SDS011;56530;42.640;23.372;2023-03-21T10:33:19;35.33;;;16.42;;
69369;SDS011;56530;42.640;23.372;2023-03-21T10:35:54;32.40;;;16.90;;
69369;SDS011;56530;42.640;23.372;2023-03-21T10:38:25;27.80;;;17.27;;
69369;SDS011;56530;42.640;23.372;2023-03-21T10:40:51;24.60;;;14.68;;
69369;SDS011;56530;42.640;23.372;2023-03-21T10:43:18;22.33;;;12.60;;
69369;SDS011;56530;42.640;23.372;2023-03-21T10:45:50;21.70;;;13.88;;
69369;SDS011;56530;42.640;23.372;2023-03-21T10:48:16;23.55;;;12.52;;
69369;SDS011;56530;42.640;23.372;2023-03-21T10:50:42;23.33;;;12.27;;
69369;SDS011;56530;42.640;23.372;2023-03-21T10:53:13;20.40;;;12.52;;
69369;SDS011;56530;42.640;23.372;2023-03-21T10:55:42;22.80;;;11.13;;
69369;SDS011;56530;42.640;23.372;2023-03-21T10:58:12;23.02;;;11.85;;
69369;SDS011;56530;42.640;23.372;2023-03-21T11:00:43;18.13;;;10.63;;
69369;SDS011;56530;42.640;23.372;2023-03-21T11:06:37;19.77;;;11.18;;
69369;SDS011;56530;42.640;23.372;2023-03-21T11:08:54;25.27;;;10.00;;
69369;SDS011;56530;42.640;23.372;2023-03-21T11:14:02;14.10;;;9.40;;
69369;SDS011;56530;42.640;23.372;2023-03-21T11:16:38;17.58;;;9.75;;
69369;SDS011;56530;42.640;23.372;2023-03-21T11:19:28;16.27;;;8.77;;
69369;SDS011;56530;42.640;23.372;2023-03-21T11:22:04;16.00;;;8.65;;
69369;SDS011;56530;42.640;23.372;2023-03-21T11:24:31;13.70;;;9.13;;
69369;SDS011;56530;42.640;23.372;2023-03-21T11:26:57;14.27;;;8.85;;
69369;SDS011;56530;42.640;23.372;2023-03-21T11:29:31;15.57;;;9.35;;
69369;SDS011;56530;42.640;23.372;2023-03-21T11:32:00;16.35;;;9.43;;
69369;SDS011;56530;42.640;23.372;2023-03-21T11:34:38;17.45;;;9.75;;
69369;SDS011;56530;42.640;23.372;2023-03-21T11:37:15;13.77;;;9.40;;
69369;SDS011;56530;42.640;23.372;2023-03-21T11:39:46;13.40;;;8.52;;
69369;SDS011;56530;42.640;23.372;2023-03-21T11:42:25;15.52;;;8.00;;
69369;SDS011;56530;42.640;23.372;2023-03-21T11:45:09;14.25;;;8.45;;
69369;SDS011;56530;42.640;23.372;2023-03-21T11:47:39;15.38;;;8.60;;
69369;SDS011;56530;42.640;23.372;2023-03-21T11:50:50;19.83;;;10.80;;
69369;SDS011;56530;42.640;23.372;2023-03-21T12:01:49;16.92;;;7.93;;
69369;SDS011;56530;42.640;23.372;2023-03-21T12:04:51;13.38;;;6.30;;
69369;SDS011;56530;42.640;23.372;2023-03-21T12:15:21;6.97;;;5.50;;
69369;SDS011;56530;42.640;23.372;2023-03-21T12:20:38;11.70;;;5.53;;
69369;SDS011;56530;42.640;23.372;2023-03-21T12:23:15;8.68;;;6.22;;
69369;SDS011;56530;42.640;23.372;2023-03-21T12:36:40;8.83;;;5.00;;
69369;SDS011;56530;42.640;23.372;2023-03-21T12:44:31;7.25;;;5.65;;
69369;SDS011;56530;42.640;23.372;2023-03-21T12:47:00;8.88;;;5.05;;
69369;SDS011;56530;42.640;23.372;2023-03-21T12:49:31;14.02;;;6.03;;
69369;SDS011;56530;42.640;23.372;2023-03-21T12:52:07;13.10;;;5.72;;
69369;SDS011;56530;42.640;23.372;2023-03-21T12:54:43;9.18;;;5.68;;
69369;SDS011;56530;42.640;23.372;2023-03-21T12:59:47;11.68;;;5.38;;
69369;SDS011;56530;42.640;23.372;2023-03-21T13:02:29;7.00;;;4.78;;
69369;SDS011;56530;42.640;23.372;2023-03-21T13:04:58;5.75;;;5.15;;
69369;SDS011;56530;42.640;23.372;2023-03-21T13:07:31;22.73;;;6.43;;
69369;SDS011;56530;42.640;23.372;2023-03-21T13:10:01;27.88;;;7.47;;
69369;SDS011;56530;42.640;23.372;2023-03-21T13:21:07;9.77;;;5.22;;
69369;SDS011;56530;42.640;23.372;2023-03-21T13:23:37;6.68;;;5.30;;
69369;SDS011;56530;42.640;23.372;2023-03-21T13:26:03;5.82;;;5.13;;
69369;SDS011;56530;42.640;23.372;2023-03-21T13:28:33;6.45;;;5.10;;
69369;SDS011;56530;42.640;23.372;2023-03-21T13:31:19;11.85;;;5.50;;
69369;SDS011;56530;42.640;23.372;2023-03-21T13:33:50;8.35;;;5.25;;
69369;SDS011;56530;42.640;23.372;2023-03-21T13:36:22;13.93;;;6.38;;
69369;SDS011;56530;42.640;23.372;2023-03-21T13:38:50;8.55;;;5.38;;
69369;SDS011;56530;42.640;23.372;2023-03-21T13:41:18;14.40;;;5.70;;
69369;SDS011;56530;42.640;23.372;2023-03-21T13:51:53;14.68;;;5.55;;
69369;SDS011;56530;42.640;23.372;2023-03-21T13:54:30;22.65;;;5.85;;
69369;SDS011;56530;42.640;23.372;2023-03-21T13:57:20;10.15;;;5.20;;
69369;SDS011;56530;42.640;23.372;2023-03-21T13:59:46;8.65;;;5.88;;
69369;SDS011;56530;42.640;23.372;2023-03-21T14:05:00;15.60;;;4.93;;
69369;SDS011;56530;42.640;23.372;2023-03-21T14:07:35;14.00;;;4.95;;
69369;SDS011;56530;42.640;23.372;2023-03-21T14:10:05;6.90;;;4.38;;
69369;SDS011;56530;42.640;23.372;2023-03-21T14:12:41;10.40;;;5.15;;
69369;SDS011;56530;42.640;23.372;2023-03-21T14:15:42;20.67;;;5.05;;
69369;SDS011;56530;42.640;23.372;2023-03-21T14:18:06;7.72;;;4.95;;
69369;SDS011;56530;42.640;23.372;2023-03-21T14:20:33;8.05;;;4.55;;
69369;SDS011;56530;42.640;23.372;2023-03-21T14:23:06;7.95;;;4.35;;
69369;SDS011;56530;42.640;23.372;2023-03-21T14:25:36;13.25;;;4.80;;
69369;SDS011;56530;42.640;23.372;2023-03-21T14:28:07;12.38;;;5.30;;
69369;SDS011;56530;42.640;23.372;2023-03-21T14:30:38;9.05;;;4.22;;
69369;SDS011;56530;42.640;23.372;2023-03-21T14:35:41;6.53;;;4.07;;
69369;SDS011;56530;42.640;23.372;2023-03-21T14:38:07;5.47;;;4.20;;
69369;SDS011;56530;42.640;23.372;2023-03-21T14:40:33;11.70;;;4.40;;
69369;SDS011;56530;42.640;23.372;2023-03-21T14:43:03;8.75;;;5.03;;
69369;SDS011;56530;42.640;23.372;2023-03-21T14:45:30;10.27;;;4.45;;
69369;SDS011;56530;42.640;23.372;2023-03-21T14:47:59;12.40;;;4.85;;
69369;SDS011;56530;42.640;23.372;2023-03-21T14:53:00;5.43;;;4.20;;
69369;SDS011;56530;42.640;23.372;2023-03-21T14:55:26;5.80;;;4.47;;
69369;SDS011;56530;42.640;23.372;2023-03-21T14:57:53;13.45;;;5.75;;
69369;SDS011;56530;42.640;23.372;2023-03-21T15:00:22;7.60;;;5.28;;
69369;SDS011;56530;42.640;23.372;2023-03-21T15:02:53;8.48;;;4.85;;
69369;SDS011;56530;42.640;23.372;2023-03-21T15:05:28;10.48;;;6.22;;
69369;SDS011;56530;42.640;23.372;2023-03-21T15:08:04;15.02;;;5.10;;
69369;SDS011;56530;42.640;23.372;2023-03-21T15:10:32;9.40;;;5.15;;
69369;SDS011;56530;42.640;23.372;2023-03-21T15:12:59;8.18;;;5.13;;
69369;SDS011;56530;42.640;23.372;2023-03-21T15:15:26;7.68;;;4.65;;
69369;SDS011;56530;42.640;23.372;2023-03-21T15:17:53;6.10;;;4.88;;
69369;SDS011;56530;42.640;23.372;2023-03-21T15:20:23;6.82;;;4.70;;
69369;SDS011;56530;42.640;23.372;2023-03-21T15:22:51;10.43;;;5.75;;
69369;SDS011;56530;42.640;23.372;2023-03-21T15:25:21;7.70;;;5.50;;
69369;SDS011;56530;42.640;23.372;2023-03-21T15:27:50;13.95;;;6.00;;
69369;SDS011;56530;42.640;23.372;2023-03-21T15:30:20;11.23;;;5.35;;
69369;SDS011;56530;42.640;23.372;2023-03-21T15:32:48;7.72;;;5.50;;
69369;SDS011;56530;42.640;23.372;2023-03-21T15:35:14;9.27;;;5.93;;
69369;SDS011;56530;42.640;23.372;2023-03-21T15:37:41;7.18;;;5.18;;
69369;SDS011;56530;42.640;23.372;2023-03-21T15:42:38;9.43;;;5.93;;
69369;SDS011;56530;42.640;23.372;2023-03-21T15:45:16;15.00;;;6.75;;
69369;SDS011;56530;42.640;23.372;2023-03-21T15:52:51;9.68;;;5.13;;
69369;SDS011;56530;42.640;23.372;2023-03-21T15:55:20;8.60;;;5.85;;
69369;SDS011;56530;42.640;23.372;2023-03-21T15:57:50;9.77;;;6.10;;
69369;SDS011;56530;42.640;23.372;2023-03-21T16:03:01;6.63;;;5.82;;
69369;SDS011;56530;42.640;23.372;2023-03-21T16:05:34;12.57;;;5.20;;
69369;SDS011;56530;42.640;23.372;2023-03-21T16:08:19;6.25;;;5.20;;
69369;SDS011;56530;42.640;23.372;2023-03-21T16:10:47;8.88;;;6.80;;
69369;SDS011;56530;42.640;23.372;2023-03-21T16:13:15;8.27;;;5.72;;
69369;SDS011;56530;42.640;23.372;2023-03-21T16:15:41;7.53;;;6.07;;
69369;SDS011;56530;42.640;23.372;2023-03-21T16:18:07;6.72;;;6.03;;
69369;SDS011;56530;42.640;23.372;2023-03-21T16:20:33;7.80;;;5.70;;
69369;SDS011;56530;42.640;23.372;2023-03-21T16:23:01;10.60;;;5.60;;
69369;SDS011;56530;42.640;23.372;2023-03-21T16:27:52;8.82;;;6.53;;
69369;SDS011;56530;42.640;23.372;2023-03-21T16:30:19;12.13;;;8.75;;
69369;SDS011;56530;42.640;23.372;2023-03-21T16:32:45;15.40;;;7.90;;
69369;SDS011;56530;42.640;23.372;2023-03-21T16:35:10;11.80;;;8.48;;
69369;SDS011;56530;42.640;23.372;2023-03-21T16:37:36;10.10;;;8.00;;
69369;SDS011;56530;42.640;23.372;2023-03-21T17:48:12;17.88;;;10.95;;
69369;SDS011;56530;42.640;23.372;2023-03-21T17:50:38;11.13;;;9.93;;
69369;SDS011;56530;42.640;23.372;2023-03-21T17:53:04;12.70;;;10.32;;